sensor_id;sensor_type;location;lat;lon;timestamp;pressure;altitude;pressure_sealevel;temperature;humidity
54994;BME280;40891;47.242;8.648;2022-08-21T00:01:11;96514.50;;;17.09;100.00
54994;BME280;40891;47.242;8.648;2022-08-21T00:03:38;96517.59;;;17.11;100.00
54994;BME280;40891;47.242;8.648;2022-08-21T00:06:04;96515.56;;;17.12;100.00
54994;BME280;40891;47.242;8.648;2022-08-21T00:08:29;96514.31;;;17.13;100.00
54994;BME280;40891;47.242;8.648;2022-08-21T00:10:55;96510.72;;;17.12;100.00
54994;BME280;40891;47.242;8.648;2022-08-21T00:13:20;96511.97;;;17.11;100.00
54994;BME280;40891;47.242;8.648;2022-08-21T00:15:46;96507.63;;;17.10;100.00
54994;BME280;40891;47.242;8.648;2022-08-21T00:18:12;96510.88;;;17.03;100.00
54994;BME280;40891;47.242;8.648;2022-08-21T00:20:40;96510.50;;;16.95;100.00
54994;BME280;40891;47.242;8.648;2022-08-21T00:23:07;96507.16;;;16.91;100.00
54994;BME280;40891;47.242;8.648;2022-08-21T00:25:32;96508.13;;;16.88;100.00
54994;BME280;40891;47.242;8.648;2022-08-21T00:27:58;96496.03;;;16.82;100.00
54994;BME280;40891;47.242;8.648;2022-08-21T00:30:25;96498.78;;;16.77;100.00
54994;BME280;40891;47.242;8.648;2022-08-21T00:32:53;96498.28;;;16.78;100.00
54994;BME280;40891;47.242;8.648;2022-08-21T00:35:22;96503.25;;;16.69;100.00
54994;BME280;40891;47.242;8.648;2022-08-21T00:37:48;96496.69;;;16.72;100.00
54994;BME280;40891;47.242;8.648;2022-08-21T00:40:17;96503.75;;;16.67;100.00
54994;BME280;40891;47.242;8.648;2022-08-21T00:42:44;96506.63;;;16.73;100.00
54994;BME280;40891;47.242;8.648;2022-08-21T00:45:13;96499.41;;;16.66;100.00
54994;BME280;40891;47.242;8.648;2022-08-21T00:47:39;96499.41;;;16.66;100.00
54994;BME280;40891;47.242;8.648;2022-08-21T00:50:12;96501.72;;;16.68;100.00
54994;BME280;40891;47.242;8.648;2022-08-21T00:52:39;96497.94;;;16.71;100.00
54994;BME280;40891;47.242;8.648;2022-08-21T00:55:07;96489.22;;;16.69;100.00
54994;BME280;40891;47.242;8.648;2022-08-21T00:57:42;96490.97;;;16.66;100.00
54994;BME280;40891;47.242;8.648;2022-08-21T01:00:14;96491.66;;;16.61;100.00
54994;BME280;40891;47.242;8.648;2022-08-21T01:02:40;96498.34;;;16.64;100.00
54994;BME280;40891;47.242;8.648;2022-08-21T01:05:06;96497.28;;;16.61;100.00
54994;BME280;40891;47.242;8.648;2022-08-21T01:07:32;96494.47;;;16.61;100.00
54994;BME280;40891;47.242;8.648;2022-08-21T01:09:57;96507.03;;;16.66;100.00
54994;BME280;40891;47.242;8.648;2022-08-21T01:12:23;96490.63;;;16.59;100.00
54994;BME280;40891;47.242;8.648;2022-08-21T01:14:49;96491.63;;;16.56;100.00
54994;BME280;40891;47.242;8.648;2022-08-21T01:17:15;96486.66;;;16.51;100.00
54994;BME280;40891;47.242;8.648;2022-08-21T01:19:41;96494.41;;;16.56;100.00
54994;BME280;40891;47.242;8.648;2022-08-21T01:22:07;96484.31;;;16.49;100.00
54994;BME280;40891;47.242;8.648;2022-08-21T01:24:33;96482.00;;;16.48;100.00
54994;BME280;40891;47.242;8.648;2022-08-21T01:26:59;96475.16;;;16.49;100.00
54994;BME280;40891;47.242;8.648;2022-08-21T01:29:42;96475.63;;;16.47;100.00
54994;BME280;40891;47.242;8.648;2022-08-21T01:32:12;96483.75;;;16.45;100.00
54994;BME280;40891;47.242;8.648;2022-08-21T01:34:41;96476.41;;;16.48;100.00
54994;BME280;40891;47.242;8.648;2022-08-21T01:37:07;96467.69;;;16.46;100.00
54994;BME280;40891;47.242;8.648;2022-08-21T01:39:34;96465.41;;;16.44;100.00
54994;BME280;40891;47.242;8.648;2022-08-21T01:42:00;96460.84;;;16.47;100.00
54994;BME280;40891;47.242;8.648;2022-08-21T01:44:25;96473.50;;;16.42;100.00
54994;BME280;40891;47.242;8.648;2022-08-21T01:46:52;96476.81;;;16.41;100.00
54994;BME280;40891;47.242;8.648;2022-08-21T01:49:17;96465.81;;;16.37;100.00
54994;BME280;40891;47.242;8.648;2022-08-21T01:51:43;96467.84;;;16.37;100.00
54994;BME280;40891;47.242;8.648;2022-08-21T01:54:09;96457.88;;;16.35;100.00
54994;BME280;40891;47.242;8.648;2022-08-21T01:56:39;96457.66;;;16.39;100.00
54994;BME280;40891;47.242;8.648;2022-08-21T01:59:05;96452.63;;;16.43;100.00
54994;BME280;40891;47.242;8.648;2022-08-21T02:01:30;96451.06;;;16.42;100.00
54994;BME280;40891;47.242;8.648;2022-08-21T02:03:56;96455.13;;;16.41;100.00
54994;BME280;40891;47.242;8.648;2022-08-21T02:06:21;96445.44;;;16.42;100.00
54994;BME280;40891;47.242;8.648;2022-08-21T02:08:47;96447.78;;;16.44;100.00
54994;BME280;40891;47.242;8.648;2022-08-21T02:11:12;96436.06;;;16.45;100.00
54994;BME280;40891;47.242;8.648;2022-08-21T02:13:38;96439.91;;;16.48;100.00
54994;BME280;40891;47.242;8.648;2022-08-21T02:16:04;96430.16;;;16.43;100.00
54994;BME280;40891;47.242;8.648;2022-08-21T02:18:29;96426.84;;;16.45;100.00
54994;BME280;40891;47.242;8.648;2022-08-21T02:20:54;96429.47;;;16.48;100.00
54994;BME280;40891;47.242;8.648;2022-08-21T02:23:20;96432.06;;;16.52;100.00
54994;BME280;40891;47.242;8.648;2022-08-21T02:25:45;96431.50;;;16.48;100.00
54994;BME280;40891;47.242;8.648;2022-08-21T02:28:13;96427.44;;;16.49;100.00
54994;BME280;40891;47.242;8.648;2022-08-21T02:30:42;96434.03;;;16.46;100.00
54994;BME280;40891;47.242;8.648;2022-08-21T02:33:08;96425.09;;;16.47;100.00
54994;BME280;40891;47.242;8.648;2022-08-21T02:35:35;96429.38;;;16.43;100.00
54994;BME280;40891;47.242;8.648;2022-08-21T02:38:04;96429.31;;;16.37;100.00
54994;BME280;40891;47.242;8.648;2022-08-21T02:40:34;96427.28;;;16.38;100.00
54994;BME280;40891;47.242;8.648;2022-08-21T02:43:01;96431.41;;;16.42;100.00
54994;BME280;40891;47.242;8.648;2022-08-21T02:45:27;96426.03;;;16.39;100.00
54994;BME280;40891;47.242;8.648;2022-08-21T02:47:57;96422.84;;;16.31;100.00
54994;BME280;40891;47.242;8.648;2022-08-21T02:50:29;96420.47;;;16.24;100.00
54994;BME280;40891;47.242;8.648;2022-08-21T02:52:56;96427.03;;;16.21;100.00
54994;BME280;40891;47.242;8.648;2022-08-21T02:55:26;96427.25;;;16.17;100.00
54994;BME280;40891;47.242;8.648;2022-08-21T02:57:54;96428.22;;;16.14;100.00
54994;BME280;40891;47.242;8.648;2022-08-21T03:00:21;96434.34;;;16.13;100.00
54994;BME280;40891;47.242;8.648;2022-08-21T03:02:47;96430.56;;;16.16;100.00
54994;BME280;40891;47.242;8.648;2022-08-21T03:05:13;96426.69;;;16.13;100.00
54994;BME280;40891;47.242;8.648;2022-08-21T03:07:41;96427.94;;;16.12;100.00
54994;BME280;40891;47.242;8.648;2022-08-21T03:10:07;96426.41;;;16.11;100.00
54994;BME280;40891;47.242;8.648;2022-08-21T03:12:33;96418.75;;;16.12;100.00
54994;BME280;40891;47.242;8.648;2022-08-21T03:15:01;96414.16;;;16.09;100.00
54994;BME280;40891;47.242;8.648;2022-08-21T03:17:26;96425.56;;;16.05;100.00
54994;BME280;40891;47.242;8.648;2022-08-21T03:19:52;96414.06;;;16.03;100.00
54994;BME280;40891;47.242;8.648;2022-08-21T03:22:17;96416.59;;;16.01;100.00
54994;BME280;40891;47.242;8.648;2022-08-21T03:24:43;96421.19;;;16.04;100.00
54994;BME280;40891;47.242;8.648;2022-08-21T03:27:08;96426.53;;;16.02;100.00
54994;BME280;40891;47.242;8.648;2022-08-21T03:29:33;96426.25;;;16.00;100.00
54994;BME280;40891;47.242;8.648;2022-08-21T03:31:59;96423.72;;;16.02;100.00
54994;BME280;40891;47.242;8.648;2022-08-21T03:34:24;96424.50;;;16.03;100.00
54994;BME280;40891;47.242;8.648;2022-08-21T03:36:49;96427.81;;;16.01;100.00
54994;BME280;40891;47.242;8.648;2022-08-21T03:39:16;96422.88;;;15.96;100.00
54994;BME280;40891;47.242;8.648;2022-08-21T03:41:41;96431.28;;;15.96;100.00
54994;BME280;40891;47.242;8.648;2022-08-21T03:44:07;96432.63;;;16.01;100.00
54994;BME280;40891;47.242;8.648;2022-08-21T03:46:32;96421.50;;;16.06;100.00
54994;BME280;40891;47.242;8.648;2022-08-21T03:48:58;96432.00;;;16.11;100.00
54994;BME280;40891;47.242;8.648;2022-08-21T03:51:23;96425.16;;;16.12;100.00
54994;BME280;40891;47.242;8.648;2022-08-21T03:53:48;96428.03;;;16.18;100.00
54994;BME280;40891;47.242;8.648;2022-08-21T03:56:14;96429.66;;;16.24;100.00
54994;BME280;40891;47.242;8.648;2022-08-21T03:58:41;96427.91;;;16.27;100.00
54994;BME280;40891;47.242;8.648;2022-08-21T04:01:07;96422.50;;;16.23;100.00
54994;BME280;40891;47.242;8.648;2022-08-21T04:03:35;96429.44;;;16.28;100.00
54994;BME280;40891;47.242;8.648;2022-08-21T04:06:00;96426.63;;;16.28;100.00
54994;BME280;40891;47.242;8.648;2022-08-21T04:08:26;96431.50;;;16.27;100.00
54994;BME280;40891;47.242;8.648;2022-08-21T04:10:53;96435.81;;;16.28;100.00
54994;BME280;40891;47.242;8.648;2022-08-21T04:13:20;96447.31;;;16.30;100.00
54994;BME280;40891;47.242;8.648;2022-08-21T04:15:46;96437.38;;;16.29;100.00
54994;BME280;40891;47.242;8.648;2022-08-21T04:18:12;96437.16;;;16.33;100.00
54994;BME280;40891;47.242;8.648;2022-08-21T04:20:39;96430.50;;;16.30;100.00
54994;BME280;40891;47.242;8.648;2022-08-21T04:23:05;96435.41;;;16.35;100.00
54994;BME280;40891;47.242;8.648;2022-08-21T04:25:30;96440.56;;;16.37;100.00
54994;BME280;40891;47.242;8.648;2022-08-21T04:27:55;96434.72;;;16.41;100.00
54994;BME280;40891;47.242;8.648;2022-08-21T04:30:21;96435.28;;;16.45;100.00
54994;BME280;40891;47.242;8.648;2022-08-21T04:32:48;96444.47;;;16.45;100.00
54994;BME280;40891;47.242;8.648;2022-08-21T04:35:15;96447.00;;;16.43;100.00
54994;BME280;40891;47.242;8.648;2022-08-21T04:37:41;96445.66;;;16.53;100.00
54994;BME280;40891;47.242;8.648;2022-08-21T04:40:08;96443.94;;;16.61;100.00
54994;BME280;40891;47.242;8.648;2022-08-21T04:42:42;96449.63;;;16.67;100.00
54994;BME280;40891;47.242;8.648;2022-08-21T04:45:08;96449.72;;;16.72;100.00
54994;BME280;40891;47.242;8.648;2022-08-21T04:47:34;96448.72;;;16.75;100.00
54994;BME280;40891;47.242;8.648;2022-08-21T04:49:59;96451.69;;;16.86;100.00
54994;BME280;40891;47.242;8.648;2022-08-21T04:52:24;96444.16;;;16.98;100.00
54994;BME280;40891;47.242;8.648;2022-08-21T04:54:51;96446.09;;;17.12;100.00
54994;BME280;40891;47.242;8.648;2022-08-21T04:57:17;96445.84;;;17.16;100.00
54994;BME280;40891;47.242;8.648;2022-08-21T04:59:49;96451.09;;;17.28;100.00
54994;BME280;40891;47.242;8.648;2022-08-21T05:02:16;96457.88;;;17.42;100.00
54994;BME280;40891;47.242;8.648;2022-08-21T05:04:50;96446.00;;;17.52;100.00
54994;BME280;40891;47.242;8.648;2022-08-21T05:07:21;96453.03;;;17.68;100.00
54994;BME280;40891;47.242;8.648;2022-08-21T05:09:48;96448.53;;;17.76;100.00
54994;BME280;40891;47.242;8.648;2022-08-21T05:12:14;96446.06;;;17.89;100.00
54994;BME280;40891;47.242;8.648;2022-08-21T05:14:39;96446.84;;;17.90;100.00
54994;BME280;40891;47.242;8.648;2022-08-21T05:17:05;96439.38;;;17.87;100.00
54994;BME280;40891;47.242;8.648;2022-08-21T05:19:30;96444.75;;;17.85;100.00
54994;BME280;40891;47.242;8.648;2022-08-21T05:21:55;96438.84;;;17.83;100.00
54994;BME280;40891;47.242;8.648;2022-08-21T05:24:22;96447.03;;;17.81;100.00
54994;BME280;40891;47.242;8.648;2022-08-21T05:26:47;96444.72;;;17.79;100.00
54994;BME280;40891;47.242;8.648;2022-08-21T05:29:15;96447.28;;;17.83;100.00
54994;BME280;40891;47.242;8.648;2022-08-21T05:31:40;96450.88;;;17.83;100.00
54994;BME280;40891;47.242;8.648;2022-08-21T05:34:06;96447.81;;;17.87;100.00
54994;BME280;40891;47.242;8.648;2022-08-21T05:36:31;96448.38;;;17.91;100.00
54994;BME280;40891;47.242;8.648;2022-08-21T05:38:57;96446.09;;;17.95;100.00
54994;BME280;40891;47.242;8.648;2022-08-21T05:41:22;96442.31;;;17.98;100.00
54994;BME280;40891;47.242;8.648;2022-08-21T05:43:47;96444.09;;;18.01;100.00
54994;BME280;40891;47.242;8.648;2022-08-21T05:46:13;96437.72;;;18.00;100.00
54994;BME280;40891;47.242;8.648;2022-08-21T05:48:39;96447.47;;;18.05;100.00
54994;BME280;40891;47.242;8.648;2022-08-21T05:51:06;96436.22;;;18.10;100.00
54994;BME280;40891;47.242;8.648;2022-08-21T05:53:32;96444.47;;;18.14;100.00
54994;BME280;40891;47.242;8.648;2022-08-21T05:55:57;96438.88;;;18.19;100.00
54994;BME280;40891;47.242;8.648;2022-08-21T05:58:22;96438.84;;;18.14;100.00
54994;BME280;40891;47.242;8.648;2022-08-21T06:00:49;96446.53;;;18.19;100.00
54994;BME280;40891;47.242;8.648;2022-08-21T06:03:21;96445.50;;;18.16;100.00
54994;BME280;40891;47.242;8.648;2022-08-21T06:05:47;96446.06;;;18.26;100.00
54994;BME280;40891;47.242;8.648;2022-08-21T06:08:14;96449.63;;;18.21;100.00
54994;BME280;40891;47.242;8.648;2022-08-21T06:10:41;96445.72;;;18.13;100.00
54994;BME280;40891;47.242;8.648;2022-08-21T06:13:06;96440.13;;;18.18;100.00
54994;BME280;40891;47.242;8.648;2022-08-21T06:15:32;96444.72;;;18.16;100.00
54994;BME280;40891;47.242;8.648;2022-08-21T06:17:58;96445.50;;;18.16;100.00
54994;BME280;40891;47.242;8.648;2022-08-21T06:20:23;96443.00;;;18.29;100.00
54994;BME280;40891;47.242;8.648;2022-08-21T06:22:48;96450.16;;;18.25;100.00
54994;BME280;40891;47.242;8.648;2022-08-21T06:25:14;96444.25;;;18.23;100.00
54994;BME280;40891;47.242;8.648;2022-08-21T06:27:39;96435.50;;;18.52;100.00
54994;BME280;40891;47.242;8.648;2022-08-21T06:30:06;96435.34;;;18.67;100.00
54994;BME280;40891;47.242;8.648;2022-08-21T06:32:31;96435.41;;;18.83;100.00
54994;BME280;40891;47.242;8.648;2022-08-21T06:34:57;96430.34;;;19.10;99.39
54994;BME280;40891;47.242;8.648;2022-08-21T06:37:22;96432.50;;;19.48;98.19
54994;BME280;40891;47.242;8.648;2022-08-21T06:39:47;96435.34;;;19.70;96.31
54994;BME280;40891;47.242;8.648;2022-08-21T06:42:15;96440.47;;;19.88;94.52
54994;BME280;40891;47.242;8.648;2022-08-21T06:44:42;96432.28;;;20.01;95.04
54994;BME280;40891;47.242;8.648;2022-08-21T06:47:07;96434.59;;;20.03;91.15
54994;BME280;40891;47.242;8.648;2022-08-21T06:49:33;96439.97;;;20.06;93.08
54994;BME280;40891;47.242;8.648;2022-08-21T06:51:59;96432.00;;;20.05;94.23
54994;BME280;40891;47.242;8.648;2022-08-21T06:54:25;96446.66;;;20.03;92.53
54994;BME280;40891;47.242;8.648;2022-08-21T06:56:50;96432.00;;;20.05;91.76
54994;BME280;40891;47.242;8.648;2022-08-21T06:59:15;96443.06;;;20.03;92.35
54994;BME280;40891;47.242;8.648;2022-08-21T07:01:41;96438.94;;;19.98;91.39
54994;BME280;40891;47.242;8.648;2022-08-21T07:04:06;96439.19;;;20.00;91.40
54994;BME280;40891;47.242;8.648;2022-08-21T07:06:32;96443.06;;;20.08;89.92
54994;BME280;40891;47.242;8.648;2022-08-21T07:08:58;96441.75;;;20.09;91.05
54994;BME280;40891;47.242;8.648;2022-08-21T07:11:24;96442.28;;;20.08;89.36
54994;BME280;40891;47.242;8.648;2022-08-21T07:16:18;96446.16;;;19.99;89.80
54994;BME280;40891;47.242;8.648;2022-08-21T07:18:43;96442.00;;;20.11;88.55
54994;BME280;40891;47.242;8.648;2022-08-21T07:21:09;96441.53;;;19.96;90.65
54994;BME280;40891;47.242;8.648;2022-08-21T07:23:40;96441.50;;;19.85;91.19
54994;BME280;40891;47.242;8.648;2022-08-21T07:26:06;96439.72;;;19.93;93.65
54994;BME280;40891;47.242;8.648;2022-08-21T07:28:32;96440.72;;;20.07;92.63
54994;BME280;40891;47.242;8.648;2022-08-21T07:30:59;96436.34;;;20.11;92.14
54994;BME280;40891;47.242;8.648;2022-08-21T07:33:27;96433.78;;;20.19;91.96
54994;BME280;40891;47.242;8.648;2022-08-21T07:35:53;96430.75;;;20.22;91.52
54994;BME280;40891;47.242;8.648;2022-08-21T07:38:18;96426.88;;;20.25;89.43
54994;BME280;40891;47.242;8.648;2022-08-21T07:40:45;96434.81;;;20.32;89.39
54994;BME280;40891;47.242;8.648;2022-08-21T07:43:11;96427.38;;;20.41;90.47
54994;BME280;40891;47.242;8.648;2022-08-21T07:45:37;96428.63;;;20.51;91.41
54994;BME280;40891;47.242;8.648;2022-08-21T07:48:03;96423.50;;;20.38;88.26
54994;BME280;40891;47.242;8.648;2022-08-21T07:50:29;96429.41;;;20.51;89.08
54994;BME280;40891;47.242;8.648;2022-08-21T07:52:54;96436.56;;;20.63;90.78
54994;BME280;40891;47.242;8.648;2022-08-21T07:55:20;96427.50;;;20.76;91.63
54994;BME280;40891;47.242;8.648;2022-08-21T07:57:47;96427.72;;;20.89;90.76
54994;BME280;40891;47.242;8.648;2022-08-21T08:00:15;96429.47;;;21.03;89.52
54994;BME280;40891;47.242;8.648;2022-08-21T08:02:44;96433.81;;;21.04;89.61
54994;BME280;40891;47.242;8.648;2022-08-21T08:05:11;96427.84;;;21.24;89.10
54994;BME280;40891;47.242;8.648;2022-08-21T08:07:37;96426.03;;;21.27;87.31
54994;BME280;40891;47.242;8.648;2022-08-21T08:10:05;96425.50;;;21.23;88.54
54994;BME280;40891;47.242;8.648;2022-08-21T08:12:33;96424.25;;;21.18;87.54
54994;BME280;40891;47.242;8.648;2022-08-21T08:15:00;96422.19;;;21.24;86.67
54994;BME280;40891;47.242;8.648;2022-08-21T08:17:26;96418.78;;;21.31;83.97
54994;BME280;40891;47.242;8.648;2022-08-21T08:19:52;96423.91;;;21.33;83.94
54994;BME280;40891;47.242;8.648;2022-08-21T08:22:20;96418.03;;;21.31;84.78
54994;BME280;40891;47.242;8.648;2022-08-21T08:24:47;96416.22;;;21.33;84.08
54994;BME280;40891;47.242;8.648;2022-08-21T08:27:14;96414.38;;;21.41;83.89
54994;BME280;40891;47.242;8.648;2022-08-21T08:29:40;96406.34;;;21.45;85.32
54994;BME280;40891;47.242;8.648;2022-08-21T08:32:06;96414.28;;;21.52;82.92
54994;BME280;40891;47.242;8.648;2022-08-21T08:34:35;96412.69;;;21.57;80.45
54994;BME280;40891;47.242;8.648;2022-08-21T08:37:02;96412.81;;;21.76;83.20
54994;BME280;40891;47.242;8.648;2022-08-21T08:39:28;96413.53;;;21.82;81.49
54994;BME280;40891;47.242;8.648;2022-08-21T08:42:08;96407.53;;;21.96;80.74
54994;BME280;40891;47.242;8.648;2022-08-21T08:44:40;96413.69;;;22.00;79.27
54994;BME280;40891;47.242;8.648;2022-08-21T08:47:06;96414.81;;;22.16;79.64
54994;BME280;40891;47.242;8.648;2022-08-21T08:50:01;96418.69;;;22.13;77.28
54994;BME280;40891;47.242;8.648;2022-08-21T08:52:35;96413.06;;;22.37;78.87
54994;BME280;40891;47.242;8.648;2022-08-21T08:55:08;96413.47;;;22.47;79.04
54994;BME280;40891;47.242;8.648;2022-08-21T08:57:35;96403.28;;;22.62;78.11
54994;BME280;40891;47.242;8.648;2022-08-21T09:00:10;96398.88;;;22.85;78.34
54994;BME280;40891;47.242;8.648;2022-08-21T09:02:40;96396.75;;;22.91;76.96
54994;BME280;40891;47.242;8.648;2022-08-21T09:05:07;96390.31;;;23.10;76.52
54994;BME280;40891;47.242;8.648;2022-08-21T09:10:16;96390.41;;;23.23;71.98
54994;BME280;40891;47.242;8.648;2022-08-21T09:13:07;96393.84;;;23.53;72.11
54994;BME280;40891;47.242;8.648;2022-08-21T09:15:54;96391.94;;;23.42;71.07
54994;BME280;40891;47.242;8.648;2022-08-21T09:21:43;96386.78;;;23.91;71.91
54994;BME280;40891;47.242;8.648;2022-08-21T09:24:35;96370.94;;;24.41;69.91
54994;BME280;40891;47.242;8.648;2022-08-21T09:27:08;96366.91;;;24.62;68.23
54994;BME280;40891;47.242;8.648;2022-08-21T09:29:40;96369.19;;;24.90;66.83
54994;BME280;40891;47.242;8.648;2022-08-21T09:32:13;96361.69;;;25.13;64.51
54994;BME280;40891;47.242;8.648;2022-08-21T09:34:40;96364.94;;;25.30;64.39
54994;BME280;40891;47.242;8.648;2022-08-21T09:37:16;96364.19;;;25.63;63.21
54994;BME280;40891;47.242;8.648;2022-08-21T09:39:42;96358.56;;;25.71;61.71
54994;BME280;40891;47.242;8.648;2022-08-21T09:42:09;96354.22;;;25.23;60.38
54994;BME280;40891;47.242;8.648;2022-08-21T09:44:40;96357.19;;;25.64;59.71
54994;BME280;40891;47.242;8.648;2022-08-21T09:47:10;96360.78;;;26.06;61.86
54994;BME280;40891;47.242;8.648;2022-08-21T09:49:39;96349.03;;;26.59;63.75
54994;BME280;40891;47.242;8.648;2022-08-21T09:52:17;96349.22;;;26.89;59.02
54994;BME280;40891;47.242;8.648;2022-08-21T09:54:45;96350.56;;;26.60;56.28
54994;BME280;40891;47.242;8.648;2022-08-21T09:57:19;96350.50;;;27.16;57.06
54994;BME280;40891;47.242;8.648;2022-08-21T10:00:30;96341.16;;;27.82;55.70
54994;BME280;40891;47.242;8.648;2022-08-21T10:03:16;96336.84;;;28.03;53.99
54994;BME280;40891;47.242;8.648;2022-08-21T10:05:53;96335.50;;;28.27;54.95
54994;BME280;40891;47.242;8.648;2022-08-21T10:08:20;96325.53;;;28.66;52.30
54994;BME280;40891;47.242;8.648;2022-08-21T10:10:51;96324.34;;;28.84;52.05
54994;BME280;40891;47.242;8.648;2022-08-21T10:18:42;96319.84;;;29.53;48.89
54994;BME280;40891;47.242;8.648;2022-08-21T10:21:28;96310.66;;;29.87;48.25
54994;BME280;40891;47.242;8.648;2022-08-21T10:34:38;96306.53;;;30.81;45.31
54994;BME280;40891;47.242;8.648;2022-08-21T10:43:21;96305.13;;;30.72;43.21
54994;BME280;40891;47.242;8.648;2022-08-21T10:48:50;96298.63;;;33.64;38.04
54994;BME280;40891;47.242;8.648;2022-08-21T10:54:25;96296.38;;;34.85;35.02
54994;BME280;40891;47.242;8.648;2022-08-21T10:57:00;96287.13;;;36.32;31.60
54994;BME280;40891;47.242;8.648;2022-08-21T11:02:20;96277.94;;;37.07;29.61
54994;BME280;40891;47.242;8.648;2022-08-21T11:07:46;96270.72;;;38.76;26.93
54994;BME280;40891;47.242;8.648;2022-08-21T11:10:27;96256.22;;;39.78;27.36
54994;BME280;40891;47.242;8.648;2022-08-21T11:13:01;96261.38;;;39.50;26.49
54994;BME280;40891;47.242;8.648;2022-08-21T11:15:43;96259.38;;;38.14;26.38
54994;BME280;40891;47.242;8.648;2022-08-21T11:23:25;96248.13;;;41.03;26.08
54994;BME280;40891;47.242;8.648;2022-08-21T11:25:57;96241.66;;;40.89;22.75
54994;BME280;40891;47.242;8.648;2022-08-21T11:28:30;96239.00;;;39.39;25.57
54994;BME280;40891;47.242;8.648;2022-08-21T11:31:17;96242.41;;;40.41;24.07
54994;BME280;40891;47.242;8.648;2022-08-21T11:33:59;96232.63;;;40.83;25.59
54994;BME280;40891;47.242;8.648;2022-08-21T11:36:47;96224.19;;;41.60;24.72
54994;BME280;40891;47.242;8.648;2022-08-21T11:39:32;96227.28;;;42.01;22.60
54994;BME280;40891;47.242;8.648;2022-08-21T11:48:26;96221.47;;;40.13;24.12
54994;BME280;40891;47.242;8.648;2022-08-21T11:50:42;96210.75;;;41.17;23.65
54994;BME280;40891;47.242;8.648;2022-08-21T11:55:49;96205.09;;;41.94;23.31
54994;BME280;40891;47.242;8.648;2022-08-21T12:01:01;96210.09;;;41.72;22.62
54994;BME280;40891;47.242;8.648;2022-08-21T12:03:40;96208.84;;;41.42;22.38
54994;BME280;40891;47.242;8.648;2022-08-21T12:06:10;96214.81;;;42.57;21.92
54994;BME280;40891;47.242;8.648;2022-08-21T12:08:38;96206.69;;;42.76;21.85
54994;BME280;40891;47.242;8.648;2022-08-21T12:11:07;96206.41;;;42.67;22.18
54994;BME280;40891;47.242;8.648;2022-08-21T12:13:36;96196.72;;;42.63;21.08
54994;BME280;40891;47.242;8.648;2022-08-21T12:16:35;96192.75;;;42.15;21.17
54994;BME280;40891;47.242;8.648;2022-08-21T12:19:14;96193.63;;;41.63;21.57
54994;BME280;40891;47.242;8.648;2022-08-21T12:22:07;96185.22;;;41.00;22.79
54994;BME280;40891;47.242;8.648;2022-08-21T12:29:46;96186.84;;;40.70;21.48
54994;BME280;40891;47.242;8.648;2022-08-21T12:34:41;96191.44;;;39.95;22.88
54994;BME280;40891;47.242;8.648;2022-08-21T12:37:45;96182.66;;;40.57;23.27
54994;BME280;40891;47.242;8.648;2022-08-21T12:40:20;96178.47;;;42.05;21.99
54994;BME280;40891;47.242;8.648;2022-08-21T12:42:57;96175.28;;;39.76;24.05
54994;BME280;40891;47.242;8.648;2022-08-21T12:45:34;96177.81;;;39.99;23.52
54994;BME280;40891;47.242;8.648;2022-08-21T12:50:54;96169.34;;;42.35;20.02
54994;BME280;40891;47.242;8.648;2022-08-21T12:53:42;96177.19;;;42.28;21.81
54994;BME280;40891;47.242;8.648;2022-08-21T12:56:12;96168.16;;;42.22;21.90
54994;BME280;40891;47.242;8.648;2022-08-21T12:58:46;96169.31;;;42.74;21.06
54994;BME280;40891;47.242;8.648;2022-08-21T13:01:24;96170.28;;;43.02;20.21
54994;BME280;40891;47.242;8.648;2022-08-21T13:03:53;96169.50;;;41.99;21.45
54994;BME280;40891;47.242;8.648;2022-08-21T13:06:20;96169.56;;;43.02;20.92
54994;BME280;40891;47.242;8.648;2022-08-21T13:08:46;96170.56;;;41.33;21.08
54994;BME280;40891;47.242;8.648;2022-08-21T13:11:16;96166.34;;;42.52;20.47
54994;BME280;40891;47.242;8.648;2022-08-21T13:13:48;96173.16;;;41.63;21.80
54994;BME280;40891;47.242;8.648;2022-08-21T13:16:19;96167.56;;;38.50;24.07
54994;BME280;40891;47.242;8.648;2022-08-21T13:21:31;96163.03;;;40.93;22.29
54994;BME280;40891;47.242;8.648;2022-08-21T13:24:19;96166.16;;;40.64;23.25
54994;BME280;40891;47.242;8.648;2022-08-21T13:26:46;96165.84;;;41.62;21.63
54994;BME280;40891;47.242;8.648;2022-08-21T13:29:13;96158.44;;;41.06;21.85
54994;BME280;40891;47.242;8.648;2022-08-21T13:31:41;96164.47;;;41.10;21.59
54994;BME280;40891;47.242;8.648;2022-08-21T13:34:09;96165.28;;;40.95;22.01
54994;BME280;40891;47.242;8.648;2022-08-21T13:36:37;96162.16;;;40.40;21.63
54994;BME280;40891;47.242;8.648;2022-08-21T13:39:06;96170.56;;;40.65;22.38
54994;BME280;40891;47.242;8.648;2022-08-21T13:41:35;96173.28;;;40.94;22.63
54994;BME280;40891;47.242;8.648;2022-08-21T13:44:15;96171.53;;;41.22;22.80
54994;BME280;40891;47.242;8.648;2022-08-21T13:46:41;96153.47;;;42.40;20.96
54994;BME280;40891;47.242;8.648;2022-08-21T13:49:08;96164.59;;;41.49;20.83
54994;BME280;40891;47.242;8.648;2022-08-21T13:51:35;96162.00;;;40.69;21.66
54994;BME280;40891;47.242;8.648;2022-08-21T13:54:02;96157.34;;;42.46;21.35
54994;BME280;40891;47.242;8.648;2022-08-21T13:56:30;96155.44;;;43.63;19.07
54994;BME280;40891;47.242;8.648;2022-08-21T13:58:57;96151.34;;;43.72;19.14
54994;BME280;40891;47.242;8.648;2022-08-21T14:01:49;96149.22;;;43.98;18.21
54994;BME280;40891;47.242;8.648;2022-08-21T14:04:18;96149.47;;;44.86;18.13
54994;BME280;40891;47.242;8.648;2022-08-21T14:06:45;96146.13;;;45.27;17.81
54994;BME280;40891;47.242;8.648;2022-08-21T14:09:30;96155.06;;;43.51;20.30
54994;BME280;40891;47.242;8.648;2022-08-21T14:11:59;96151.06;;;44.12;18.43
54994;BME280;40891;47.242;8.648;2022-08-21T14:14:30;96153.34;;;42.16;19.28
54994;BME280;40891;47.242;8.648;2022-08-21T14:17:02;96156.03;;;42.49;20.52